sensor_id;sensor_type;location;lat;lon;timestamp;P1;durP1;ratioP1;P2;durP2;ratioP2
12665;SDS011;58531;59.050;17.416;2022-09-27T00:02:19;5.90;;;2.80;;
12665;SDS011;58531;59.050;17.416;2022-09-27T00:04:46;5.87;;;2.77;;
12665;SDS011;58531;59.050;17.416;2022-09-27T00:07:14;4.60;;;2.97;;
12665;SDS011;58531;59.050;17.416;2022-09-27T00:09:41;4.90;;;2.33;;
12665;SDS011;58531;59.050;17.416;2022-09-27T00:12:08;6.23;;;2.80;;
12665;SDS011;58531;59.050;17.416;2022-09-27T00:14:35;3.90;;;2.10;;
12665;SDS011;58531;59.050;17.416;2022-09-27T00:17:02;5.93;;;2.40;;
12665;SDS011;58531;59.050;17.416;2022-09-27T00:19:29;4.67;;;2.10;;
12665;SDS011;58531;59.050;17.416;2022-09-27T00:21:56;4.63;;;2.23;;
12665;SDS011;58531;59.050;17.416;2022-09-27T00:24:24;5.63;;;2.13;;
12665;SDS011;58531;59.050;17.416;2022-09-27T00:26:51;5.53;;;1.90;;
12665;SDS011;58531;59.050;17.416;2022-09-27T00:29:18;4.30;;;2.07;;
12665;SDS011;58531;59.050;17.416;2022-09-27T00:31:45;4.83;;;2.00;;
12665;SDS011;58531;59.050;17.416;2022-09-27T00:34:15;3.10;;;1.97;;
12665;SDS011;58531;59.050;17.416;2022-09-27T00:36:44;4.33;;;2.00;;
12665;SDS011;58531;59.050;17.416;2022-09-27T00:39:12;3.97;;;1.90;;
12665;SDS011;58531;59.050;17.416;2022-09-27T00:41:40;5.13;;;2.40;;
12665;SDS011;58531;59.050;17.416;2022-09-27T00:47:08;2.30;;;1.93;;
12665;SDS011;58531;59.050;17.416;2022-09-27T00:49:40;4.77;;;2.10;;
12665;SDS011;58531;59.050;17.416;2022-09-27T00:52:12;4.03;;;2.27;;
12665;SDS011;58531;59.050;17.416;2022-09-27T00:54:43;3.83;;;1.87;;
12665;SDS011;58531;59.050;17.416;2022-09-27T00:57:15;3.03;;;2.40;;
12665;SDS011;58531;59.050;17.416;2022-09-27T00:59:43;2.80;;;2.10;;
12665;SDS011;58531;59.050;17.416;2022-09-27T01:02:13;3.87;;;2.20;;
12665;SDS011;58531;59.050;17.416;2022-09-27T01:04:40;5.07;;;2.50;;
12665;SDS011;58531;59.050;17.416;2022-09-27T01:07:09;3.90;;;2.13;;
12665;SDS011;58531;59.050;17.416;2022-09-27T01:09:36;6.53;;;3.13;;
12665;SDS011;58531;59.050;17.416;2022-09-27T01:12:06;8.37;;;2.73;;
12665;SDS011;58531;59.050;17.416;2022-09-27T01:14:47;4.27;;;2.50;;
12665;SDS011;58531;59.050;17.416;2022-09-27T01:17:31;8.87;;;2.30;;
12665;SDS011;58531;59.050;17.416;2022-09-27T01:20:18;4.40;;;2.70;;
12665;SDS011;58531;59.050;17.416;2022-09-27T01:26:10;3.13;;;2.27;;
12665;SDS011;58531;59.050;17.416;2022-09-27T01:28:47;4.80;;;2.30;;
12665;SDS011;58531;59.050;17.416;2022-09-27T01:31:25;4.97;;;2.30;;
12665;SDS011;58531;59.050;17.416;2022-09-27T01:33:56;3.63;;;2.40;;
12665;SDS011;58531;59.050;17.416;2022-09-27T01:36:30;4.60;;;2.73;;
12665;SDS011;58531;59.050;17.416;2022-09-27T01:39:09;3.53;;;2.73;;
12665;SDS011;58531;59.050;17.416;2022-09-27T01:41:51;5.33;;;2.93;;
12665;SDS011;58531;59.050;17.416;2022-09-27T01:44:26;4.17;;;2.80;;
12665;SDS011;58531;59.050;17.416;2022-09-27T01:47:02;4.77;;;2.57;;
12665;SDS011;58531;59.050;17.416;2022-09-27T01:49:31;5.47;;;2.70;;
12665;SDS011;58531;59.050;17.416;2022-09-27T01:52:04;7.00;;;2.80;;
12665;SDS011;58531;59.050;17.416;2022-09-27T01:54:36;6.10;;;2.73;;
12665;SDS011;58531;59.050;17.416;2022-09-27T01:57:06;6.50;;;3.30;;
12665;SDS011;58531;59.050;17.416;2022-09-27T01:59:36;7.77;;;3.10;;
12665;SDS011;58531;59.050;17.416;2022-09-27T02:02:09;3.87;;;3.03;;
12665;SDS011;58531;59.050;17.416;2022-09-27T02:04:38;6.20;;;3.70;;
12665;SDS011;58531;59.050;17.416;2022-09-27T02:07:09;4.67;;;2.30;;
12665;SDS011;58531;59.050;17.416;2022-09-27T02:09:43;4.87;;;2.73;;
12665;SDS011;58531;59.050;17.416;2022-09-27T02:12:14;6.80;;;2.80;;
12665;SDS011;58531;59.050;17.416;2022-09-27T02:14:47;4.47;;;2.77;;
12665;SDS011;58531;59.050;17.416;2022-09-27T02:17:21;4.33;;;2.57;;
12665;SDS011;58531;59.050;17.416;2022-09-27T02:19:52;4.73;;;2.50;;
12665;SDS011;58531;59.050;17.416;2022-09-27T02:22:29;7.70;;;2.70;;
12665;SDS011;58531;59.050;17.416;2022-09-27T02:25:01;6.03;;;2.50;;
12665;SDS011;58531;59.050;17.416;2022-09-27T02:27:37;6.17;;;2.67;;
12665;SDS011;58531;59.050;17.416;2022-09-27T02:30:11;5.77;;;3.10;;
12665;SDS011;58531;59.050;17.416;2022-09-27T02:32:41;6.63;;;2.80;;
12665;SDS011;58531;59.050;17.416;2022-09-27T02:35:10;4.43;;;2.80;;
12665;SDS011;58531;59.050;17.416;2022-09-27T02:37:40;6.87;;;2.50;;
12665;SDS011;58531;59.050;17.416;2022-09-27T02:40:08;5.37;;;3.00;;
12665;SDS011;58531;59.050;17.416;2022-09-27T02:42:35;6.30;;;3.00;;
12665;SDS011;58531;59.050;17.416;2022-09-27T02:45:03;7.57;;;3.07;;
12665;SDS011;58531;59.050;17.416;2022-09-27T02:47:38;5.10;;;3.50;;
12665;SDS011;58531;59.050;17.416;2022-09-27T02:50:25;8.80;;;2.80;;
12665;SDS011;58531;59.050;17.416;2022-09-27T02:53:02;5.63;;;2.43;;
12665;SDS011;58531;59.050;17.416;2022-09-27T02:55:37;5.70;;;2.47;;
12665;SDS011;58531;59.050;17.416;2022-09-27T02:58:16;6.07;;;2.87;;
12665;SDS011;58531;59.050;17.416;2022-09-27T03:00:51;4.50;;;2.40;;
12665;SDS011;58531;59.050;17.416;2022-09-27T03:03:29;5.43;;;2.60;;
12665;SDS011;58531;59.050;17.416;2022-09-27T03:06:02;3.93;;;2.50;;
12665;SDS011;58531;59.050;17.416;2022-09-27T03:08:31;4.30;;;2.80;;
12665;SDS011;58531;59.050;17.416;2022-09-27T03:10:58;4.93;;;2.50;;
12665;SDS011;58531;59.050;17.416;2022-09-27T03:13:25;4.60;;;2.37;;
12665;SDS011;58531;59.050;17.416;2022-09-27T03:15:53;9.93;;;2.70;;
12665;SDS011;58531;59.050;17.416;2022-09-27T03:18:19;4.73;;;2.67;;
12665;SDS011;58531;59.050;17.416;2022-09-27T03:20:48;4.33;;;2.67;;
12665;SDS011;58531;59.050;17.416;2022-09-27T03:23:14;9.17;;;3.47;;
12665;SDS011;58531;59.050;17.416;2022-09-27T03:25:41;5.50;;;2.93;;
12665;SDS011;58531;59.050;17.416;2022-09-27T03:28:08;6.07;;;2.57;;
12665;SDS011;58531;59.050;17.416;2022-09-27T03:30:35;4.50;;;2.50;;
12665;SDS011;58531;59.050;17.416;2022-09-27T03:33:02;4.80;;;2.87;;
12665;SDS011;58531;59.050;17.416;2022-09-27T03:35:29;9.77;;;4.37;;
12665;SDS011;58531;59.050;17.416;2022-09-27T03:37:57;3.83;;;3.43;;
12665;SDS011;58531;59.050;17.416;2022-09-27T03:40:24;5.97;;;3.10;;
12665;SDS011;58531;59.050;17.416;2022-09-27T03:42:50;5.87;;;3.30;;
12665;SDS011;58531;59.050;17.416;2022-09-27T03:45:17;5.70;;;2.43;;
12665;SDS011;58531;59.050;17.416;2022-09-27T03:47:44;3.20;;;1.90;;
12665;SDS011;58531;59.050;17.416;2022-09-27T03:50:12;2.37;;;1.87;;
12665;SDS011;58531;59.050;17.416;2022-09-27T03:52:39;1.60;;;1.50;;
12665;SDS011;58531;59.050;17.416;2022-09-27T03:55:09;3.27;;;1.80;;
12665;SDS011;58531;59.050;17.416;2022-09-27T03:57:36;1.70;;;1.60;;
12665;SDS011;58531;59.050;17.416;2022-09-27T04:00:03;2.80;;;1.43;;
12665;SDS011;58531;59.050;17.416;2022-09-27T04:02:31;2.10;;;1.60;;
12665;SDS011;58531;59.050;17.416;2022-09-27T04:04:58;2.30;;;1.80;;
12665;SDS011;58531;59.050;17.416;2022-09-27T04:07:25;2.33;;;1.83;;
12665;SDS011;58531;59.050;17.416;2022-09-27T04:09:51;3.23;;;1.57;;
12665;SDS011;58531;59.050;17.416;2022-09-27T04:12:20;3.17;;;1.70;;
12665;SDS011;58531;59.050;17.416;2022-09-27T04:14:46;1.63;;;1.43;;
12665;SDS011;58531;59.050;17.416;2022-09-27T04:17:13;3.13;;;1.70;;
12665;SDS011;58531;59.050;17.416;2022-09-27T04:19:40;2.07;;;1.77;;
12665;SDS011;58531;59.050;17.416;2022-09-27T04:22:07;4.10;;;2.00;;
12665;SDS011;58531;59.050;17.416;2022-09-27T04:24:33;4.23;;;1.80;;
12665;SDS011;58531;59.050;17.416;2022-09-27T04:27:00;2.77;;;1.90;;
12665;SDS011;58531;59.050;17.416;2022-09-27T04:29:28;2.80;;;1.77;;
12665;SDS011;58531;59.050;17.416;2022-09-27T04:31:56;2.90;;;1.80;;
12665;SDS011;58531;59.050;17.416;2022-09-27T04:34:23;3.87;;;1.87;;
12665;SDS011;58531;59.050;17.416;2022-09-27T04:37:03;3.50;;;2.03;;
12665;SDS011;58531;59.050;17.416;2022-09-27T04:39:30;4.07;;;2.23;;
12665;SDS011;58531;59.050;17.416;2022-09-27T04:41:57;2.13;;;1.80;;
12665;SDS011;58531;59.050;17.416;2022-09-27T04:44:24;4.87;;;2.43;;
12665;SDS011;58531;59.050;17.416;2022-09-27T04:46:52;3.87;;;2.27;;
12665;SDS011;58531;59.050;17.416;2022-09-27T04:49:19;3.53;;;2.10;;
12665;SDS011;58531;59.050;17.416;2022-09-27T04:51:45;5.80;;;2.50;;
12665;SDS011;58531;59.050;17.416;2022-09-27T04:54:13;4.17;;;2.60;;
12665;SDS011;58531;59.050;17.416;2022-09-27T04:56:40;4.00;;;2.43;;
12665;SDS011;58531;59.050;17.416;2022-09-27T04:59:07;4.03;;;3.23;;
12665;SDS011;58531;59.050;17.416;2022-09-27T05:01:34;3.10;;;2.70;;
12665;SDS011;58531;59.050;17.416;2022-09-27T05:04:02;6.07;;;3.30;;
12665;SDS011;58531;59.050;17.416;2022-09-27T05:06:29;5.33;;;3.10;;
12665;SDS011;58531;59.050;17.416;2022-09-27T05:08:56;4.10;;;3.60;;
12665;SDS011;58531;59.050;17.416;2022-09-27T05:11:23;5.40;;;4.00;;
12665;SDS011;58531;59.050;17.416;2022-09-27T05:13:50;8.50;;;3.87;;
12665;SDS011;58531;59.050;17.416;2022-09-27T05:16:17;4.27;;;3.40;;
12665;SDS011;58531;59.050;17.416;2022-09-27T05:18:44;5.47;;;3.30;;
12665;SDS011;58531;59.050;17.416;2022-09-27T05:21:12;6.03;;;2.97;;
12665;SDS011;58531;59.050;17.416;2022-09-27T05:23:39;5.17;;;2.60;;
12665;SDS011;58531;59.050;17.416;2022-09-27T05:26:06;4.63;;;2.97;;
12665;SDS011;58531;59.050;17.416;2022-09-27T05:28:33;6.40;;;3.13;;
12665;SDS011;58531;59.050;17.416;2022-09-27T05:31:00;6.23;;;3.40;;
12665;SDS011;58531;59.050;17.416;2022-09-27T05:33:27;7.10;;;5.00;;
12665;SDS011;58531;59.050;17.416;2022-09-27T05:35:54;10.03;;;5.50;;
12665;SDS011;58531;59.050;17.416;2022-09-27T05:38:24;5.63;;;3.60;;
12665;SDS011;58531;59.050;17.416;2022-09-27T05:40:51;6.67;;;3.23;;
12665;SDS011;58531;59.050;17.416;2022-09-27T05:43:17;3.93;;;3.53;;
12665;SDS011;58531;59.050;17.416;2022-09-27T05:45:45;5.60;;;3.30;;
12665;SDS011;58531;59.050;17.416;2022-09-27T05:48:12;3.77;;;2.70;;
12665;SDS011;58531;59.050;17.416;2022-09-27T05:50:39;6.43;;;3.07;;
12665;SDS011;58531;59.050;17.416;2022-09-27T05:53:06;4.50;;;3.27;;
12665;SDS011;58531;59.050;17.416;2022-09-27T05:55:34;3.13;;;2.83;;
12665;SDS011;58531;59.050;17.416;2022-09-27T05:58:02;4.77;;;3.07;;
12665;SDS011;58531;59.050;17.416;2022-09-27T06:00:31;2.77;;;2.53;;
12665;SDS011;58531;59.050;17.416;2022-09-27T06:03:00;2.70;;;2.40;;
12665;SDS011;58531;59.050;17.416;2022-09-27T06:05:28;4.07;;;2.70;;
12665;SDS011;58531;59.050;17.416;2022-09-27T06:07:57;4.07;;;2.60;;
12665;SDS011;58531;59.050;17.416;2022-09-27T06:10:25;3.00;;;2.70;;
12665;SDS011;58531;59.050;17.416;2022-09-27T06:12:58;2.80;;;2.17;;
12665;SDS011;58531;59.050;17.416;2022-09-27T06:15:26;4.03;;;2.57;;
12665;SDS011;58531;59.050;17.416;2022-09-27T06:17:53;3.60;;;2.03;;
12665;SDS011;58531;59.050;17.416;2022-09-27T06:20:20;4.37;;;2.50;;
12665;SDS011;58531;59.050;17.416;2022-09-27T06:22:47;4.53;;;2.43;;
12665;SDS011;58531;59.050;17.416;2022-09-27T06:25:14;6.33;;;2.00;;
12665;SDS011;58531;59.050;17.416;2022-09-27T06:27:41;5.23;;;2.17;;
12665;SDS011;58531;59.050;17.416;2022-09-27T06:30:10;4.47;;;1.93;;
12665;SDS011;58531;59.050;17.416;2022-09-27T06:32:37;4.17;;;2.50;;
12665;SDS011;58531;59.050;17.416;2022-09-27T06:35:04;1.97;;;1.70;;
12665;SDS011;58531;59.050;17.416;2022-09-27T06:37:31;4.10;;;1.60;;
12665;SDS011;58531;59.050;17.416;2022-09-27T06:39:58;3.77;;;1.80;;
12665;SDS011;58531;59.050;17.416;2022-09-27T06:42:25;2.13;;;1.60;;
12665;SDS011;58531;59.050;17.416;2022-09-27T06:44:53;2.70;;;1.27;;
12665;SDS011;58531;59.050;17.416;2022-09-27T06:47:21;2.17;;;1.20;;
12665;SDS011;58531;59.050;17.416;2022-09-27T06:49:49;2.20;;;1.17;;
12665;SDS011;58531;59.050;17.416;2022-09-27T06:52:16;2.53;;;1.27;;
12665;SDS011;58531;59.050;17.416;2022-09-27T06:54:42;1.87;;;0.87;;
12665;SDS011;58531;59.050;17.416;2022-09-27T06:57:09;8.73;;;1.10;;
12665;SDS011;58531;59.050;17.416;2022-09-27T06:59:56;2.53;;;1.13;;
12665;SDS011;58531;59.050;17.416;2022-09-27T07:02:41;3.10;;;1.20;;
12665;SDS011;58531;59.050;17.416;2022-09-27T07:05:08;1.77;;;0.80;;
12665;SDS011;58531;59.050;17.416;2022-09-27T07:07:35;1.20;;;1.00;;
12665;SDS011;58531;59.050;17.416;2022-09-27T07:10:02;3.20;;;1.60;;
12665;SDS011;58531;59.050;17.416;2022-09-27T07:12:29;3.83;;;1.30;;
12665;SDS011;58531;59.050;17.416;2022-09-27T07:14:56;3.47;;;1.40;;
12665;SDS011;58531;59.050;17.416;2022-09-27T07:17:23;2.67;;;1.20;;
12665;SDS011;58531;59.050;17.416;2022-09-27T07:19:53;2.93;;;1.37;;
12665;SDS011;58531;59.050;17.416;2022-09-27T07:22:20;2.17;;;1.90;;
12665;SDS011;58531;59.050;17.416;2022-09-27T07:24:47;4.00;;;1.40;;
12665;SDS011;58531;59.050;17.416;2022-09-27T07:27:13;1.10;;;1.00;;
12665;SDS011;58531;59.050;17.416;2022-09-27T07:29:42;2.33;;;1.13;;
12665;SDS011;58531;59.050;17.416;2022-09-27T07:32:09;1.63;;;1.10;;
12665;SDS011;58531;59.050;17.416;2022-09-27T07:34:35;2.63;;;1.00;;
12665;SDS011;58531;59.050;17.416;2022-09-27T07:37:03;3.17;;;1.10;;
12665;SDS011;58531;59.050;17.416;2022-09-27T07:39:30;2.63;;;1.40;;
12665;SDS011;58531;59.050;17.416;2022-09-27T07:41:57;3.87;;;1.47;;
12665;SDS011;58531;59.050;17.416;2022-09-27T07:44:24;1.87;;;1.40;;
12665;SDS011;58531;59.050;17.416;2022-09-27T07:46:51;4.07;;;1.47;;
12665;SDS011;58531;59.050;17.416;2022-09-27T07:49:17;2.73;;;1.37;;
12665;SDS011;58531;59.050;17.416;2022-09-27T07:51:44;2.43;;;1.30;;
12665;SDS011;58531;59.050;17.416;2022-09-27T07:54:12;3.60;;;1.10;;
12665;SDS011;58531;59.050;17.416;2022-09-27T07:56:39;1.63;;;0.97;;
12665;SDS011;58531;59.050;17.416;2022-09-27T07:59:06;2.70;;;1.07;;
12665;SDS011;58531;59.050;17.416;2022-09-27T08:01:33;2.47;;;1.10;;
12665;SDS011;58531;59.050;17.416;2022-09-27T08:04:00;3.07;;;1.10;;
12665;SDS011;58531;59.050;17.416;2022-09-27T08:06:27;2.57;;;1.10;;
12665;SDS011;58531;59.050;17.416;2022-09-27T08:08:54;4.23;;;1.07;;
12665;SDS011;58531;59.050;17.416;2022-09-27T08:11:24;3.93;;;1.13;;
12665;SDS011;58531;59.050;17.416;2022-09-27T08:13:51;0.83;;;0.80;;
12665;SDS011;58531;59.050;17.416;2022-09-27T08:16:18;3.00;;;1.07;;
12665;SDS011;58531;59.050;17.416;2022-09-27T08:18:44;2.50;;;1.00;;
12665;SDS011;58531;59.050;17.416;2022-09-27T08:21:11;2.40;;;1.00;;
12665;SDS011;58531;59.050;17.416;2022-09-27T08:23:38;2.73;;;0.97;;
12665;SDS011;58531;59.050;17.416;2022-09-27T08:26:05;3.17;;;1.03;;
12665;SDS011;58531;59.050;17.416;2022-09-27T08:28:33;4.07;;;1.07;;
12665;SDS011;58531;59.050;17.416;2022-09-27T08:30:59;3.37;;;1.13;;
12665;SDS011;58531;59.050;17.416;2022-09-27T08:33:26;3.37;;;1.30;;
12665;SDS011;58531;59.050;17.416;2022-09-27T08:35:53;2.70;;;0.93;;
12665;SDS011;58531;59.050;17.416;2022-09-27T08:38:20;1.97;;;0.80;;
12665;SDS011;58531;59.050;17.416;2022-09-27T08:40:50;2.50;;;0.97;;
12665;SDS011;58531;59.050;17.416;2022-09-27T08:43:22;2.67;;;1.20;;
12665;SDS011;58531;59.050;17.416;2022-09-27T08:46:03;1.90;;;1.10;;
12665;SDS011;58531;59.050;17.416;2022-09-27T08:48:40;1.40;;;0.90;;
12665;SDS011;58531;59.050;17.416;2022-09-27T08:51:10;1.33;;;0.80;;
12665;SDS011;58531;59.050;17.416;2022-09-27T08:53:40;2.87;;;1.37;;
12665;SDS011;58531;59.050;17.416;2022-09-27T08:56:13;2.40;;;1.07;;
12665;SDS011;58531;59.050;17.416;2022-09-27T08:58:47;2.47;;;1.00;;
12665;SDS011;58531;59.050;17.416;2022-09-27T09:01:18;1.33;;;0.80;;
12665;SDS011;58531;59.050;17.416;2022-09-27T09:03:46;1.90;;;1.10;;
12665;SDS011;58531;59.050;17.416;2022-09-27T09:06:16;3.87;;;1.10;;
12665;SDS011;58531;59.050;17.416;2022-09-27T09:08:50;1.70;;;1.00;;
12665;SDS011;58531;59.050;17.416;2022-09-27T09:11:38;1.70;;;0.87;;
12665;SDS011;58531;59.050;17.416;2022-09-27T09:14:32;6.03;;;1.67;;
12665;SDS011;58531;59.050;17.416;2022-09-27T09:17:15;3.17;;;1.10;;
12665;SDS011;58531;59.050;17.416;2022-09-27T09:19:54;1.90;;;1.60;;
12665;SDS011;58531;59.050;17.416;2022-09-27T09:22:43;1.83;;;1.50;;
12665;SDS011;58531;59.050;17.416;2022-09-27T09:25:23;1.80;;;1.37;;
12665;SDS011;58531;59.050;17.416;2022-09-27T09:28:02;2.50;;;1.50;;
12665;SDS011;58531;59.050;17.416;2022-09-27T09:30:40;4.20;;;2.03;;
12665;SDS011;58531;59.050;17.416;2022-09-27T09:33:17;2.33;;;2.00;;
12665;SDS011;58531;59.050;17.416;2022-09-27T09:35:50;3.07;;;1.80;;
12665;SDS011;58531;59.050;17.416;2022-09-27T09:38:25;5.00;;;2.00;;
12665;SDS011;58531;59.050;17.416;2022-09-27T09:41:00;4.20;;;1.50;;
12665;SDS011;58531;59.050;17.416;2022-09-27T09:43:31;4.43;;;1.93;;
12665;SDS011;58531;59.050;17.416;2022-09-27T09:46:06;3.03;;;2.30;;
12665;SDS011;58531;59.050;17.416;2022-09-27T09:48:40;2.77;;;2.23;;
12665;SDS011;58531;59.050;17.416;2022-09-27T09:51:12;2.57;;;2.33;;
12665;SDS011;58531;59.050;17.416;2022-09-27T09:53:44;5.20;;;2.53;;
12665;SDS011;58531;59.050;17.416;2022-09-27T09:56:19;3.50;;;2.60;;
12665;SDS011;58531;59.050;17.416;2022-09-27T09:58:52;4.47;;;2.47;;
12665;SDS011;58531;59.050;17.416;2022-09-27T10:01:23;3.83;;;2.37;;
12665;SDS011;58531;59.050;17.416;2022-09-27T10:03:54;3.43;;;2.80;;
12665;SDS011;58531;59.050;17.416;2022-09-27T10:06:21;3.70;;;3.30;;
12665;SDS011;58531;59.050;17.416;2022-09-27T10:08:49;4.83;;;3.43;;
12665;SDS011;58531;59.050;17.416;2022-09-27T10:11:19;4.40;;;3.50;;
12665;SDS011;58531;59.050;17.416;2022-09-27T10:13:49;5.57;;;4.40;;
12665;SDS011;58531;59.050;17.416;2022-09-27T10:16:16;4.30;;;3.90;;
12665;SDS011;58531;59.050;17.416;2022-09-27T10:18:45;4.73;;;4.33;;
12665;SDS011;58531;59.050;17.416;2022-09-27T10:21:17;5.07;;;4.57;;
12665;SDS011;58531;59.050;17.416;2022-09-27T10:24:06;6.43;;;4.60;;
12665;SDS011;58531;59.050;17.416;2022-09-27T10:26:35;5.23;;;4.60;;
12665;SDS011;58531;59.050;17.416;2022-09-27T10:29:13;6.33;;;5.07;;
12665;SDS011;58531;59.050;17.416;2022-09-27T10:31:48;5.00;;;4.50;;
12665;SDS011;58531;59.050;17.416;2022-09-27T10:34:17;6.47;;;5.30;;
12665;SDS011;58531;59.050;17.416;2022-09-27T10:36:48;5.83;;;5.17;;
12665;SDS011;58531;59.050;17.416;2022-09-27T10:39:29;6.03;;;5.53;;
12665;SDS011;58531;59.050;17.416;2022-09-27T10:41:56;5.70;;;5.10;;
12665;SDS011;58531;59.050;17.416;2022-09-27T10:44:24;7.03;;;5.80;;
12665;SDS011;58531;59.050;17.416;2022-09-27T10:46:52;6.67;;;5.57;;
12665;SDS011;58531;59.050;17.416;2022-09-27T10:49:21;6.10;;;5.50;;
12665;SDS011;58531;59.050;17.416;2022-09-27T10:51:54;8.37;;;5.80;;
12665;SDS011;58531;59.050;17.416;2022-09-27T10:54:24;6.10;;;5.50;;
12665;SDS011;58531;59.050;17.416;2022-09-27T10:56:53;6.27;;;5.67;;
12665;SDS011;58531;59.050;17.416;2022-09-27T10:59:24;5.87;;;5.30;;
12665;SDS011;58531;59.050;17.416;2022-09-27T11:01:55;5.57;;;5.07;;
12665;SDS011;58531;59.050;17.416;2022-09-27T11:04:28;5.80;;;5.20;;
12665;SDS011;58531;59.050;17.416;2022-09-27T11:07:10;5.97;;;5.37;;
12665;SDS011;58531;59.050;17.416;2022-09-27T11:09:47;7.23;;;5.47;;
12665;SDS011;58531;59.050;17.416;2022-09-27T11:12:17;6.53;;;5.43;;
12665;SDS011;58531;59.050;17.416;2022-09-27T11:14:50;6.90;;;5.60;;
12665;SDS011;58531;59.050;17.416;2022-09-27T11:17:24;5.50;;;5.00;;
12665;SDS011;58531;59.050;17.416;2022-09-27T11:20:20;4.97;;;4.57;;
12665;SDS011;58531;59.050;17.416;2022-09-27T11:23:07;5.67;;;5.17;;
12665;SDS011;58531;59.050;17.416;2022-09-27T11:25:55;6.30;;;5.43;;
12665;SDS011;58531;59.050;17.416;2022-09-27T11:28:30;6.10;;;5.50;;
12665;SDS011;58531;59.050;17.416;2022-09-27T11:31:11;6.80;;;6.20;;
12665;SDS011;58531;59.050;17.416;2022-09-27T11:33:52;7.17;;;6.53;;
12665;SDS011;58531;59.050;17.416;2022-09-27T11:36:36;7.77;;;6.97;;
12665;SDS011;58531;59.050;17.416;2022-09-27T11:39:19;7.83;;;7.13;;
12665;SDS011;58531;59.050;17.416;2022-09-27T11:41:55;7.67;;;6.93;;
12665;SDS011;58531;59.050;17.416;2022-09-27T11:44:50;8.43;;;7.63;;
12665;SDS011;58531;59.050;17.416;2022-09-27T11:47:26;9.20;;;8.30;;
12665;SDS011;58531;59.050;17.416;2022-09-27T11:50:08;8.83;;;8.03;;
12665;SDS011;58531;59.050;17.416;2022-09-27T11:52:49;9.60;;;8.67;;
12665;SDS011;58531;59.050;17.416;2022-09-27T11:55:29;10.33;;;9.10;;
12665;SDS011;58531;59.050;17.416;2022-09-27T11:58:08;9.63;;;8.50;;
12665;SDS011;58531;59.050;17.416;2022-09-27T12:00:44;10.63;;;9.17;;
12665;SDS011;58531;59.050;17.416;2022-09-27T12:06:21;10.73;;;9.70;;
12665;SDS011;58531;59.050;17.416;2022-09-27T12:09:00;11.17;;;10.17;;
12665;SDS011;58531;59.050;17.416;2022-09-27T12:11:35;11.03;;;9.93;;
12665;SDS011;58531;59.050;17.416;2022-09-27T12:14:05;11.30;;;10.20;;
12665;SDS011;58531;59.050;17.416;2022-09-27T12:16:37;11.70;;;9.90;;
12665;SDS011;58531;59.050;17.416;2022-09-27T12:19:10;12.10;;;10.60;;
12665;SDS011;58531;59.050;17.416;2022-09-27T12:21:42;12.97;;;11.77;;
12665;SDS011;58531;59.050;17.416;2022-09-27T12:24:13;13.33;;;12.10;;
12665;SDS011;58531;59.050;17.416;2022-09-27T12:26:46;11.90;;;10.80;;
12665;SDS011;58531;59.050;17.416;2022-09-27T12:29:18;13.43;;;12.13;;
12665;SDS011;58531;59.050;17.416;2022-09-27T12:31:50;14.17;;;12.67;;
12665;SDS011;58531;59.050;17.416;2022-09-27T12:34:23;14.30;;;12.80;;
12665;SDS011;58531;59.050;17.416;2022-09-27T12:36:55;13.97;;;12.30;;
12665;SDS011;58531;59.050;17.416;2022-09-27T12:39:27;13.33;;;12.03;;
12665;SDS011;58531;59.050;17.416;2022-09-27T12:42:05;14.23;;;12.23;;
12665;SDS011;58531;59.050;17.416;2022-09-27T12:44:40;13.20;;;11.80;;
12665;SDS011;58531;59.050;17.416;2022-09-27T12:47:09;12.53;;;11.33;;
12665;SDS011;58531;59.050;17.416;2022-09-27T12:49:47;12.93;;;11.63;;
12665;SDS011;58531;59.050;17.416;2022-09-27T12:52:24;12.93;;;11.63;;
12665;SDS011;58531;59.050;17.416;2022-09-27T12:55:04;13.60;;;12.30;;
12665;SDS011;58531;59.050;17.416;2022-09-27T12:57:49;12.97;;;11.77;;
12665;SDS011;58531;59.050;17.416;2022-09-27T13:00:25;13.27;;;11.83;;
12665;SDS011;58531;59.050;17.416;2022-09-27T13:12:09;13.53;;;11.93;;
12665;SDS011;58531;59.050;17.416;2022-09-27T13:14:41;13.33;;;12.03;;
12665;SDS011;58531;59.050;17.416;2022-09-27T13:17:33;13.77;;;12.30;;
12665;SDS011;58531;59.050;17.416;2022-09-27T13:23:04;13.93;;;12.63;;
12665;SDS011;58531;59.050;17.416;2022-09-27T13:25:56;13.83;;;12.43;;
12665;SDS011;58531;59.050;17.416;2022-09-27T13:28:31;12.77;;;11.67;;
12665;SDS011;58531;59.050;17.416;2022-09-27T13:31:01;17.17;;;12.40;;
12665;SDS011;58531;59.050;17.416;2022-09-27T13:33:30;13.27;;;11.87;;
12665;SDS011;58531;59.050;17.416;2022-09-27T13:36:07;13.17;;;11.77;;
12665;SDS011;58531;59.050;17.416;2022-09-27T13:42:01;13.13;;;10.87;;
12665;SDS011;58531;59.050;17.416;2022-09-27T13:44:36;12.40;;;10.97;;
12665;SDS011;58531;59.050;17.416;2022-09-27T13:47:22;12.90;;;11.53;;
12665;SDS011;58531;59.050;17.416;2022-09-27T13:49:56;12.53;;;11.23;;
12665;SDS011;58531;59.050;17.416;2022-09-27T13:52:30;11.93;;;10.83;;
12665;SDS011;58531;59.050;17.416;2022-09-27T13:55:00;12.00;;;10.80;;
12665;SDS011;58531;59.050;17.416;2022-09-27T13:57:42;12.53;;;11.27;;
12665;SDS011;58531;59.050;17.416;2022-09-27T14:00:16;12.90;;;11.60;;
12665;SDS011;58531;59.050;17.416;2022-09-27T14:02:53;12.07;;;10.97;;
12665;SDS011;58531;59.050;17.416;2022-09-27T14:05:26;11.90;;;10.57;;
12665;SDS011;58531;59.050;17.416;2022-09-27T14:07:58;12.73;;;11.47;;
12665;SDS011;58531;59.050;17.416;2022-09-27T14:10:27;11.80;;;10.60;;
12665;SDS011;58531;59.050;17.416;2022-09-27T14:12:56;13.30;;;11.93;;
12665;SDS011;58531;59.050;17.416;2022-09-27T14:15:26;11.63;;;10.53;;
12665;SDS011;58531;59.050;17.416;2022-09-27T14:17:56;12.17;;;10.97;;
12665;SDS011;58531;59.050;17.416;2022-09-27T14:20:30;12.43;;;11.13;;
12665;SDS011;58531;59.050;17.416;2022-09-27T14:23:00;12.87;;;10.83;;
12665;SDS011;58531;59.050;17.416;2022-09-27T14:25:27;11.83;;;10.67;;
12665;SDS011;58531;59.050;17.416;2022-09-27T14:27:55;13.47;;;11.13;;
12665;SDS011;58531;59.050;17.416;2022-09-27T14:30:25;11.93;;;10.80;;
12665;SDS011;58531;59.050;17.416;2022-09-27T14:32:53;13.63;;;11.33;;
12665;SDS011;58531;59.050;17.416;2022-09-27T14:35:25;12.70;;;11.37;;
12665;SDS011;58531;59.050;17.416;2022-09-27T14:38:11;12.40;;;11.17;;
12665;SDS011;58531;59.050;17.416;2022-09-27T14:40:41;12.57;;;10.80;;
12665;SDS011;58531;59.050;17.416;2022-09-27T14:43:12;15.23;;;11.23;;
12665;SDS011;58531;59.050;17.416;2022-09-27T14:45:42;12.70;;;11.37;;
12665;SDS011;58531;59.050;17.416;2022-09-27T14:48:20;11.77;;;10.73;;
12665;SDS011;58531;59.050;17.416;2022-09-27T14:50:55;11.73;;;10.70;;
12665;SDS011;58531;59.050;17.416;2022-09-27T14:53:25;11.60;;;10.40;;
12665;SDS011;58531;59.050;17.416;2022-09-27T14:55:53;11.27;;;10.07;;
12665;SDS011;58531;59.050;17.416;2022-09-27T14:58:21;12.40;;;11.20;;
12665;SDS011;58531;59.050;17.416;2022-09-27T15:00:49;11.83;;;10.60;;
12665;SDS011;58531;59.050;17.416;2022-09-27T15:03:18;11.43;;;10.33;;
12665;SDS011;58531;59.050;17.416;2022-09-27T15:05:54;11.33;;;10.23;;
12665;SDS011;58531;59.050;17.416;2022-09-27T15:08:24;13.43;;;10.50;;
12665;SDS011;58531;59.050;17.416;2022-09-27T15:10:54;12.30;;;11.07;;
12665;SDS011;58531;59.050;17.416;2022-09-27T15:13:22;12.00;;;10.80;;
12665;SDS011;58531;59.050;17.416;2022-09-27T15:15:51;11.53;;;10.47;;
12665;SDS011;58531;59.050;17.416;2022-09-27T15:21:26;14.83;;;10.77;;